createdAt,value
2019-06-20T00:04:16.019Z,4.30
2019-06-20T00:09:11.387Z,4.47
2019-06-20T00:14:06.391Z,4.50
2019-06-20T00:19:01.389Z,4.47
2019-06-20T00:23:56.263Z,4.40
2019-06-20T00:28:51.184Z,4.60
2019-06-20T00:33:46.129Z,4.60
2019-06-20T00:38:41.052Z,4.33
2019-06-20T00:43:35.946Z,4.58
2019-06-20T00:48:30.918Z,4.93
2019-06-20T00:53:25.831Z,4.57
2019-06-20T00:58:20.776Z,4.60
2019-06-20T01:03:15.750Z,4.20
2019-06-20T01:08:10.695Z,4.50
2019-06-20T01:13:05.613Z,4.50
2019-06-20T01:18:00.554Z,4.87
2019-06-20T01:22:55.473Z,4.57
2019-06-20T01:27:50.372Z,4.47
2019-06-20T01:32:45.263Z,4.22
2019-06-20T01:37:40.273Z,4.20
2019-06-20T01:42:35.353Z,4.50
2019-06-20T01:47:30.246Z,4.70
2019-06-20T01:52:25.214Z,4.93
2019-06-20T01:57:20.119Z,6.73
2019-06-20T02:02:15.063Z,5.07
2019-06-20T02:07:10.020Z,3.53
2019-06-20T02:12:05.115Z,3.70
2019-06-20T02:16:59.971Z,3.00
2019-06-20T02:21:54.947Z,2.57
2019-06-20T02:26:49.861Z,2.50
2019-06-20T02:31:44.765Z,2.70
2019-06-20T02:36:39.762Z,2.93
2019-06-20T02:41:34.811Z,2.60
2019-06-20T02:46:29.682Z,2.87
2019-06-20T02:51:26.620Z,3.20
2019-06-20T02:56:21.906Z,3.40
2019-06-20T03:01:16.891Z,3.23
2019-06-20T03:06:11.827Z,3.00
2019-06-20T03:11:06.780Z,3.53
2019-06-20T03:16:01.783Z,3.70
2019-06-20T03:20:58.347Z,3.63
2019-06-20T03:25:53.215Z,4.33
2019-06-20T03:30:48.441Z,3.77
2019-06-20T03:35:43.384Z,4.00
2019-06-20T03:40:38.292Z,3.77
2019-06-20T03:45:33.420Z,5.37
2019-06-20T03:50:28.257Z,5.20
2019-06-20T03:55:23.086Z,4.57
2019-06-20T04:00:20.987Z,4.70
2019-06-20T04:05:15.953Z,4.70
2019-06-20T04:10:10.887Z,4.00
2019-06-20T04:15:18.582Z,4.07
2019-06-20T04:20:02.605Z,4.10
2019-06-20T04:24:57.525Z,3.87
2019-06-20T04:29:52.439Z,4.20
2019-06-20T04:34:47.311Z,3.37
2019-06-20T04:39:42.217Z,3.53
2019-06-20T04:44:37.143Z,2.80
2019-06-20T04:49:32.027Z,3.00
2019-06-20T04:54:26.957Z,3.00
2019-06-20T04:59:21.885Z,3.10
2019-06-20T05:04:22.969Z,2.90
2019-06-20T05:09:17.893Z,2.90
2019-06-20T05:14:12.783Z,2.67
2019-06-20T05:19:08.483Z,3.00
2019-06-20T05:24:03.425Z,2.50
2019-06-20T05:28:58.368Z,2.50
2019-06-20T05:33:53.219Z,2.30
2019-06-20T05:38:48.091Z,2.23
2019-06-20T05:43:43.013Z,2.30
2019-06-20T05:48:38.166Z,2.60
2019-06-20T05:53:33.207Z,2.43
2019-06-20T05:58:28.155Z,2.00
2019-06-20T06:03:23.070Z,2.23
2019-06-20T06:08:17.907Z,2.00
2019-06-20T06:13:12.855Z,2.37
2019-06-20T06:18:08.687Z,2.13
2019-06-20T06:23:03.814Z,2.50
2019-06-20T06:27:58.653Z,2.40
2019-06-20T06:32:53.549Z,2.80
2019-06-20T06:37:48.495Z,2.47
2019-06-20T06:42:43.341Z,2.90
2019-06-20T06:47:39.597Z,2.80
2019-06-20T06:52:34.553Z,2.73
2019-06-20T06:57:29.436Z,2.73
2019-06-20T07:02:24.310Z,3.30
2019-06-20T07:07:19.342Z,3.10
2019-06-20T07:12:14.218Z,3.10
2019-06-20T07:17:09.054Z,3.30
2019-06-20T07:22:03.960Z,3.33
2019-06-20T07:26:58.976Z,3.08
2019-06-20T07:31:53.867Z,3.00
2019-06-20T07:36:48.773Z,3.00
2019-06-20T07:41:43.747Z,2.75
2019-06-20T07:46:38.643Z,3.15
2019-06-20T07:51:33.600Z,2.67
2019-06-20T07:56:28.591Z,2.70
2019-06-20T08:01:26.530Z,3.00
2019-06-20T08:06:21.539Z,2.85
2019-06-20T08:11:16.412Z,3.52
2019-06-20T08:16:17.746Z,2.85
2019-06-20T08:21:12.654Z,2.72
2019-06-20T08:26:07.642Z,2.50
2019-06-20T08:31:02.667Z,2.52
2019-06-20T08:35:58.744Z,2.60
2019-06-20T08:40:54.008Z,2.40
2019-06-20T08:45:48.949Z,2.30
2019-06-20T08:50:43.950Z,2.20
2019-06-20T08:55:38.954Z,2.20
2019-06-20T09:00:35.621Z,2.00
2019-06-20T09:05:31.201Z,2.20
2019-06-20T09:10:32.935Z,1.90
2019-06-20T09:15:27.840Z,1.55
2019-06-20T09:20:23.534Z,1.70
2019-06-20T09:25:18.443Z,1.57
2019-06-20T09:30:13.707Z,1.60
2019-06-20T09:35:09.006Z,1.60
2019-06-20T09:40:05.523Z,1.60
2019-06-20T09:45:00.379Z,1.60
2019-06-20T09:49:57.697Z,1.47
2019-06-20T09:54:53.940Z,1.77
2019-06-20T10:00:02.844Z,1.40
2019-06-20T10:04:46.076Z,1.75
2019-06-20T10:09:41.866Z,1.60
2019-06-20T10:14:36.625Z,1.50
2019-06-20T10:19:31.385Z,1.22
2019-06-20T10:24:26.124Z,1.50
2019-06-20T10:29:20.883Z,1.52
2019-06-20T10:34:21.588Z,1.60
2019-06-20T10:39:16.419Z,1.80
2019-06-20T10:44:11.169Z,1.30
2019-06-20T10:49:06.987Z,2.37
2019-06-20T10:54:02.011Z,1.42
2019-06-20T10:58:56.805Z,1.90
2019-06-20T11:03:51.546Z,1.60
2019-06-20T11:08:47.246Z,1.80
2019-06-20T11:13:42.219Z,1.70
2019-06-20T11:18:38.318Z,2.10
2019-06-20T11:23:33.167Z,1.40
2019-06-20T11:28:27.967Z,1.20
2019-06-20T11:33:22.769Z,1.10
2019-06-20T11:38:17.703Z,1.20
2019-06-20T11:43:12.522Z,1.82
2019-06-20T11:48:07.422Z,1.10
2019-06-20T11:53:02.257Z,1.20
2019-06-20T11:57:57.344Z,1.20
2019-06-20T12:02:52.175Z,1.15
2019-06-20T12:07:47.899Z,1.40
2019-06-20T12:12:44.659Z,1.50
2019-06-20T12:17:43.321Z,1.20
2019-06-20T12:22:39.971Z,1.67
2019-06-20T12:27:35.803Z,1.52
2019-06-20T12:32:30.563Z,1.60
2019-06-20T12:37:25.316Z,2.35
2019-06-20T12:42:20.458Z,1.70
2019-06-20T12:47:15.279Z,1.90
2019-06-20T12:52:10.050Z,1.70
2019-06-20T12:57:04.881Z,1.87
2019-06-20T13:01:59.678Z,1.72
2019-06-20T13:06:54.426Z,1.80
2019-06-20T13:11:49.348Z,1.90
2019-06-20T13:16:44.095Z,1.82
2019-06-20T13:21:40.225Z,2.10
2019-06-20T13:26:35.243Z,1.75
2019-06-20T13:31:30.098Z,1.65
2019-06-20T13:36:24.839Z,1.95
2019-06-20T13:41:19.581Z,2.15
2019-06-20T13:46:16.326Z,1.90
2019-06-20T13:51:11.378Z,1.85
2019-06-20T13:56:06.460Z,1.92
2019-06-20T14:01:01.236Z,2.58
2019-06-20T14:05:56.021Z,1.80
2019-06-20T14:10:52.461Z,2.00
2019-06-20T14:15:48.552Z,1.60
2019-06-20T14:20:44.885Z,1.37
2019-06-20T14:25:39.821Z,1.40
2019-06-20T14:30:35.243Z,1.10
2019-06-20T14:35:30.126Z,1.15
2019-06-20T14:40:25.096Z,1.10
2019-06-20T14:45:20.397Z,1.20
2019-06-20T14:50:16.385Z,1.30
2019-06-20T14:55:12.081Z,1.45
2019-06-20T15:00:10.457Z,1.22
2019-06-20T15:05:05.525Z,1.37
2019-06-20T15:10:00.281Z,1.70
2019-06-20T15:14:55.511Z,1.72
2019-06-20T15:19:51.420Z,1.65
2019-06-20T15:24:48.507Z,1.80
2019-06-20T15:29:42.620Z,2.50
2019-06-20T15:34:37.386Z,2.30
2019-06-20T15:39:32.122Z,2.40
2019-06-20T15:44:26.925Z,2.15
2019-06-20T15:49:24.677Z,1.80
2019-06-20T15:54:27.393Z,2.55
2019-06-20T15:59:22.127Z,1.57
2019-06-20T16:04:16.911Z,1.00
2019-06-20T16:09:11.902Z,1.98
2019-06-20T16:14:06.744Z,1.20
2019-06-20T16:19:01.462Z,1.32
2019-06-20T16:23:56.248Z,1.00
2019-06-20T16:28:51.060Z,1.37
2019-06-20T16:33:45.803Z,1.50
2019-06-20T16:38:40.572Z,2.20
2019-06-20T16:43:35.331Z,1.50
2019-06-20T16:48:30.110Z,1.30
2019-06-20T16:53:31.193Z,1.12
2019-06-20T16:58:26.282Z,0.98
2019-06-20T17:03:21.033Z,1.15
2019-06-20T17:08:15.781Z,1.30
2019-06-20T17:13:10.533Z,1.57
2019-06-20T17:18:05.469Z,1.40
2019-06-20T17:23:03.307Z,1.40
2019-06-20T17:27:58.068Z,1.77
2019-06-20T17:32:53.216Z,2.17
2019-06-20T17:37:48.375Z,1.30
2019-06-20T17:42:43.103Z,2.02
2019-06-20T17:47:37.919Z,1.30
2019-06-20T17:52:32.684Z,1.50
2019-06-20T17:57:27.463Z,1.00
2019-06-20T18:02:22.627Z,1.50
2019-06-20T18:07:17.493Z,1.60
2019-06-20T18:12:14.729Z,1.40
2019-06-20T18:17:09.511Z,1.33
2019-06-20T18:22:04.444Z,1.10
2019-06-20T18:26:59.244Z,1.50
2019-06-20T18:31:54.183Z,1.30
2019-06-20T18:36:48.980Z,1.37
2019-06-20T18:41:45.477Z,1.03
2019-06-20T18:46:40.225Z,1.20
2019-06-20T18:51:35.027Z,1.90
2019-06-20T18:56:35.792Z,1.30
2019-06-20T19:01:30.628Z,1.40
2019-06-20T19:06:36.035Z,1.30
2019-06-20T19:11:28.253Z,1.73
2019-06-20T19:16:23.019Z,1.40
2019-06-20T19:21:18.086Z,2.10
2019-06-20T19:26:14.798Z,2.87
2019-06-20T19:31:16.331Z,1.73
2019-06-20T19:36:11.188Z,2.03
2019-06-20T19:41:05.983Z,1.50
2019-06-20T19:46:00.760Z,1.90
2019-06-20T19:50:55.584Z,1.40
2019-06-20T19:55:50.323Z,1.83
2019-06-20T20:00:45.280Z,1.30
2019-06-20T20:05:40.025Z,2.00
2019-06-20T20:10:47.235Z,1.53
2019-06-20T20:15:48.484Z,1.73
2019-06-20T20:20:47.156Z,1.70
2019-06-20T20:25:40.243Z,1.83
2019-06-20T20:30:35.143Z,1.90
2019-06-20T20:35:36.536Z,1.80
2019-06-20T20:40:31.272Z,1.80
2019-06-20T20:45:26.011Z,1.60
2019-06-20T20:50:21.094Z,1.67
2019-06-20T20:55:17.283Z,1.50
2019-06-20T21:00:15.299Z,1.87
2019-06-20T21:05:10.020Z,1.50
2019-06-20T21:10:05.389Z,1.70
2019-06-20T21:15:00.132Z,1.50
2019-06-20T21:19:54.862Z,1.80
2019-06-20T21:24:49.708Z,1.87
2019-06-20T21:29:44.499Z,1.80
2019-06-20T21:34:39.270Z,1.60
2019-06-20T21:39:34.004Z,1.90
2019-06-20T21:44:28.811Z,2.00
2019-06-20T21:49:23.539Z,1.90
2019-06-20T21:54:18.265Z,2.10
2019-06-20T21:59:13.018Z,1.90
2019-06-20T22:04:07.819Z,2.00
2019-06-20T22:09:05.887Z,1.67
2019-06-20T22:14:00.655Z,1.70
2019-06-20T22:18:55.379Z,1.63
2019-06-20T22:23:50.117Z,1.67
2019-06-20T22:28:45.802Z,1.77
2019-06-20T22:33:40.579Z,1.90
2019-06-20T22:38:35.338Z,2.00
2019-06-20T22:43:30.075Z,1.70
2019-06-20T22:48:24.802Z,1.57
2019-06-20T22:53:19.536Z,1.87
2019-06-20T22:58:14.279Z,1.60
2019-06-20T23:03:09.157Z,1.90
2019-06-20T23:08:04.133Z,1.90
2019-06-20T23:12:58.872Z,2.20
2019-06-20T23:17:55.880Z,2.10
2019-06-20T23:22:50.647Z,2.10
2019-06-20T23:27:45.363Z,2.40
2019-06-20T23:32:40.194Z,2.20
2019-06-20T23:37:35.000Z,2.30
2019-06-20T23:42:29.741Z,2.43
2019-06-20T23:47:24.462Z,2.43
2019-06-20T23:52:21.806Z,2.20
2019-06-20T23:57:16.575Z,2.40
